Time;durP1;ratioP1;P1;durP2;ratioP2;P2;SDS_P1;SDS_P2;PMS_P1;PMS_P2;Temp;Humidity;BMP_temperature;BMP_pressure;BME280_temperature;BME280_humidity;BME280_pressure;Samples;Min_cycle;Max_cycle;Signal;HPM_P1;HPM_P2
2021/05/21 00:00:29;;;;;;;1.73;1.00;;;;;;;13.64;53.18;100307.59;5050612;28;20225;-66
2021/05/21 00:02:57;;;;;;;1.47;1.00;;;;;;;13.63;53.45;100307.69;5048857;28;20686;-67
2021/05/21 00:05:25;;;;;;;1.17;0.90;;;;;;;13.60;53.55;100308.84;5050426;28;20221;-66
2021/05/21 00:07:51;;;;;;;1.33;1.23;;;;;;;13.57;53.46;100290.34;5050124;28;20352;-66
2021/05/21 00:10:17;;;;;;;1.83;0.87;;;;;;;13.55;53.26;100295.81;5050492;28;20217;-66
2021/05/21 00:12:43;;;;;;;1.03;1.00;;;;;;;13.53;53.01;100288.88;5049739;28;20278;-66
2021/05/21 00:15:11;;;;;;;1.10;0.87;;;;;;;13.52;53.37;100295.22;5047749;28;20213;-66
2021/05/21 00:17:37;;;;;;;2.20;1.10;;;;;;;13.50;53.26;100289.13;5050092;28;20668;-65
2021/05/21 00:20:04;;;;;;;0.87;0.87;;;;;;;13.49;53.46;100279.41;5050167;28;20221;-67
2021/05/21 00:22:31;;;;;;;1.30;1.10;;;;;;;13.49;53.23;100271.38;5049496;28;20206;-67
2021/05/21 00:24:57;;;;;;;1.43;1.10;;;;;;;13.47;53.51;100268.81;5049212;28;20202;-66
2021/05/21 00:27:23;;;;;;;1.40;1.00;;;;;;;13.47;53.36;100267.97;5050142;28;20231;-67
2021/05/21 00:29:49;;;;;;;2.67;1.00;;;;;;;13.45;53.67;100267.25;5049926;28;20201;-67
2021/05/21 00:32:15;;;;;;;2.37;0.87;;;;;;;13.43;53.79;100258.53;5049411;28;20197;-65
2021/05/21 00:34:42;;;;;;;2.00;1.03;;;;;;;13.42;53.36;100257.66;5047521;28;20209;-65
2021/05/21 00:37:08;;;;;;;2.00;1.10;;;;;;;13.42;53.79;100251.47;5050188;28;20217;-65
2021/05/21 00:39:34;;;;;;;1.90;1.00;;;;;;;13.42;53.81;100254.16;5049925;28;20447;-65
2021/05/21 00:42:00;;;;;;;1.90;0.83;;;;;;;13.42;53.73;100255.00;5049694;28;20197;-65
2021/05/21 00:44:26;;;;;;;0.80;0.80;;;;;;;13.43;53.93;100253.16;5049213;28;20288;-65
2021/05/21 00:46:52;;;;;;;1.93;0.73;;;;;;;13.44;53.68;100254.84;5050253;28;20229;-67
2021/05/21 00:49:18;;;;;;;1.80;1.13;;;;;;;13.44;54.13;100241.47;5049666;28;20689;-65
2021/05/21 00:51:45;;;;;;;2.43;0.90;;;;;;;13.45;53.77;100237.81;5049340;28;20216;-65
2021/05/21 00:54:14;;;;;;;2.10;0.90;;;;;;;13.45;53.66;100227.13;5048028;28;20205;-65
2021/05/21 00:56:41;;;;;;;1.00;0.90;;;;;;;13.45;53.63;100219.94;5054429;28;20733;-65
2021/05/21 00:59:07;;;;;;;2.07;1.00;;;;;;;13.46;54.16;100212.75;5056179;28;20574;-65
2021/05/21 01:01:33;;;;;;;2.50;1.00;;;;;;;13.47;54.04;100201.94;5055866;28;20714;-64
2021/05/21 01:03:59;;;;;;;1.47;0.90;;;;;;;13.48;54.26;100200.97;5055940;28;20205;-65
2021/05/21 01:06:25;;;;;;;1.63;0.97;;;;;;;13.50;54.36;100196.34;5056142;28;20217;-65
2021/05/21 01:08:51;;;;;;;1.53;1.00;;;;;;;13.52;54.49;100201.56;5056432;28;20220;-65
2021/05/21 01:11:17;;;;;;;2.17;1.10;;;;;;;13.53;54.49;100189.91;5056211;28;20193;-65
2021/05/21 01:13:44;;;;;;;2.13;1.17;;;;;;;13.53;54.54;100184.53;5055893;28;20205;-65
2021/05/21 01:16:10;;;;;;;1.00;0.87;;;;;;;13.55;54.84;100179.91;5055026;28;20218;-67
2021/05/21 01:18:36;;;;;;;1.73;1.20;;;;;;;13.55;55.08;100172.75;5055967;28;20205;-67
2021/05/21 01:21:04;;;;;;;1.40;1.10;;;;;;;13.57;55.15;100164.59;5055438;28;20236;-67
2021/05/21 01:23:31;;;;;;;2.40;1.20;;;;;;;13.57;55.40;100164.59;5055018;28;20691;-67
2021/05/21 01:25:58;;;;;;;1.77;1.20;;;;;;;13.58;55.69;100162.75;5055824;28;20710;-67
2021/05/21 01:28:24;;;;;;;2.17;1.20;;;;;;;13.57;55.29;100158.38;5056413;28;20232;-67
2021/05/21 01:30:51;;;;;;;0.90;0.90;;;;;;;13.57;55.78;100151.22;5055991;28;20213;-67
2021/05/21 01:33:17;;;;;;;1.23;0.90;;;;;;;13.56;55.47;100146.84;5054551;28;20670;-67
2021/05/21 01:35:44;;;;;;;1.70;1.20;;;;;;;13.58;55.92;100136.84;5053628;28;20240;-67
2021/05/21 01:38:12;;;;;;;1.63;1.50;;;;;;;13.59;55.85;100138.56;5056466;28;20521;-67
2021/05/21 01:40:39;;;;;;;2.73;1.10;;;;;;;13.58;56.03;100134.19;5053641;28;20228;-67
2021/05/21 01:43:06;;;;;;;1.53;1.20;;;;;;;13.59;56.38;100137.72;5055315;28;20201;-67
2021/05/21 01:45:33;;;;;;;1.30;1.20;;;;;;;13.60;55.73;100126.03;5081032;22;20256;-66
2021/05/21 01:47:59;;;;;;;1.80;1.20;;;;;;;13.58;56.04;100112.78;5047900;28;20216;-67
2021/05/21 01:50:25;;;;;;;1.97;1.20;;;;;;;13.58;55.75;100115.44;5055705;28;20671;-66
2021/05/21 01:52:51;;;;;;;1.23;1.13;;;;;;;13.58;56.03;100111.94;5054913;28;20292;-66
2021/05/21 01:55:18;;;;;;;1.13;1.03;;;;;;;13.58;56.20;100098.56;5055150;28;20560;-66
2021/05/21 01:57:45;;;;;;;3.43;1.70;;;;;;;13.59;55.81;100100.25;5074907;28;20237;-66
2021/05/21 02:00:12;;;;;;;1.70;1.10;;;;;;;13.58;55.98;100096.72;5075260;28;20224;-66
2021/05/21 02:02:39;;;;;;;1.67;1.57;;;;;;;13.58;55.90;100088.69;5074812;28;20213;-66
2021/05/21 02:05:07;;;;;;;2.50;1.70;;;;;;;13.58;56.17;100080.69;5072620;28;20201;-66
2021/05/21 02:07:33;;;;;;;2.37;1.40;;;;;;;13.58;56.32;100080.69;5072847;28;20229;-65
2021/05/21 02:10:01;;;;;;;2.67;1.40;;;;;;;13.59;56.18;100077.03;5072646;28;20253;-66
2021/05/21 02:12:29;;;;;;;1.23;1.13;;;;;;;13.57;56.21;100070.94;5074673;28;20264;-66
2021/05/21 02:14:58;;;;;;;1.83;1.10;;;;;;;13.57;56.55;100065.59;5072527;28;20690;-66
2021/05/21 02:17:24;;;;;;;1.83;1.40;;;;;;;13.55;56.50;100065.72;5070451;28;20225;-66
2021/05/21 02:19:51;;;;;;;1.70;1.60;;;;;;;13.55;56.71;100062.19;5072972;28;20259;-66
2021/05/21 02:22:19;;;;;;;1.73;1.10;;;;;;;13.54;56.54;100041.78;5071810;28;20204;-66
2021/05/21 02:24:45;;;;;;;1.60;1.20;;;;;;;13.54;56.67;100047.13;5072231;28;20319;-66
2021/05/21 02:27:11;;;;;;;1.70;1.20;;;;;;;13.54;56.60;100047.13;5072434;28;20471;-67
2021/05/21 02:29:38;;;;;;;1.97;1.27;;;;;;;13.51;56.34;100026.81;5071628;28;20205;-67
2021/05/21 02:32:05;;;;;;;1.87;1.20;;;;;;;13.50;56.38;100024.28;5072075;28;20274;-67
2021/05/21 02:34:31;;;;;;;1.10;1.00;;;;;;;13.49;56.31;100014.56;5071703;28;20216;-66
2021/05/21 02:36:57;;;;;;;1.50;1.10;;;;;;;13.47;56.31;100013.84;5072794;28;20216;-66
2021/05/21 02:39:23;;;;;;;1.33;1.23;;;;;;;13.46;56.39;100020.16;5071890;28;20655;-65
2021/05/21 02:41:49;;;;;;;4.03;1.20;;;;;;;13.45;56.86;100015.78;5070998;28;20216;-66
2021/05/21 02:44:15;;;;;;;1.17;1.07;;;;;;;13.43;56.32;100005.25;5072257;28;20203;-66
2021/05/21 02:46:42;;;;;;;1.43;1.17;;;;;;;13.42;56.86;100005.38;5071447;28;20236;-66
2021/05/21 02:49:08;;;;;;;1.40;1.20;;;;;;;13.41;56.81;99996.50;5072265;28;20201;-66
2021/05/21 02:51:34;;;;;;;2.07;1.20;;;;;;;13.41;56.69;99990.31;5070973;28;20254;-66
2021/05/21 02:54:00;;;;;;;2.50;1.10;;;;;;;13.40;56.57;99991.28;5072094;28;20213;-66
2021/05/21 02:56:26;;;;;;;1.97;1.27;;;;;;;13.39;56.70;99992.25;5071205;28;20698;-66
2021/05/21 02:58:52;;;;;;;1.33;1.10;;;;;;;13.38;56.49;99983.38;5071889;28;20612;-67
2021/05/21 03:01:18;;;;;;;1.53;1.03;;;;;;;13.36;56.85;99979.16;5072120;28;20274;-66
2021/05/21 03:03:45;;;;;;;2.13;1.30;;;;;;;13.34;56.50;99967.72;5070549;28;20252;-66
2021/05/21 03:06:11;;;;;;;1.37;1.00;;;;;;;13.33;56.77;99966.88;5071245;28;20227;-66
2021/05/21 03:08:37;;;;;;;2.40;1.07;;;;;;;13.31;56.66;99959.97;5071651;28;20258;-66
2021/05/21 03:11:03;;;;;;;1.83;1.07;;;;;;;13.29;56.82;99957.41;5071799;28;20205;-66
2021/05/21 03:13:29;;;;;;;1.83;1.17;;;;;;;13.28;57.18;99952.19;5070899;28;20209;-66
2021/05/21 03:15:55;;;;;;;2.00;1.80;;;;;;;13.24;57.12;99954.31;5069668;28;20229;-65
2021/05/21 03:18:23;;;;;;;1.30;1.20;;;;;;;13.22;56.88;99950.91;5071453;28;20258;-65
2021/05/21 03:20:51;;;;;;;1.60;1.20;;;;;;;13.19;57.14;99954.69;5070699;28;20217;-67
2021/05/21 03:23:17;;;;;;;2.30;1.40;;;;;;;13.16;57.47;99936.22;5070985;28;20211;-65
2021/05/21 03:25:44;;;;;;;1.17;1.07;;;;;;;13.12;57.48;99940.09;5070528;28;20209;-66
2021/05/21 03:28:11;;;;;;;1.87;1.30;;;;;;;13.10;57.31;99933.19;5070962;28;20235;-66
2021/05/21 03:30:37;;;;;;;2.37;1.10;;;;;;;13.07;57.41;99930.81;5071300;28;20250;-66
2021/05/21 03:33:04;;;;;;;1.77;1.00;;;;;;;13.04;57.81;99926.56;5069917;28;20209;-67
2021/05/21 03:35:30;;;;;;;2.57;1.33;;;;;;;13.03;57.70;99921.34;5070876;28;20235;-66
2021/05/21 03:37:57;;;;;;;2.17;1.20;;;;;;;13.00;57.73;99922.44;5065998;28;20214;-65
2021/05/21 03:40:23;;;;;;;1.50;1.17;;;;;;;12.99;58.26;99923.41;5071066;28;20251;-64
2021/05/21 03:42:49;;;;;;;1.20;1.10;;;;;;;12.98;58.31;99921.72;5067346;28;20205;-66
2021/05/21 03:45:16;;;;;;;2.40;1.63;;;;;;;12.99;58.22;99917.22;5066064;28;20209;-65
2021/05/21 03:47:45;;;;;;;1.83;1.13;;;;;;;12.98;58.46;99904.84;5070677;28;20315;-65
2021/05/21 03:50:12;;;;;;;3.50;1.40;;;;;;;12.98;58.39;99910.19;5069705;28;20201;-66
2021/05/21 03:52:38;;;;;;;2.10;1.10;;;;;;;12.98;58.56;99904.84;5069616;28;20201;-66
2021/05/21 03:55:07;;;;;;;2.37;1.30;;;;;;;12.99;58.56;99906.53;5069897;28;20207;-66
2021/05/21 03:57:33;;;;;;;1.93;1.03;;;;;;;12.98;58.32;99902.16;5070570;28;20224;-66
2021/05/21 04:00:00;;;;;;;2.87;1.93;;;;;;;12.99;58.76;99891.34;5067859;28;20672;-66
2021/05/21 04:02:26;;;;;;;1.10;1.00;;;;;;;12.99;58.57;99898.50;5067035;28;20201;-66
2021/05/21 04:04:52;;;;;;;1.20;0.80;;;;;;;13.00;58.65;99893.03;5070202;28;20574;-67
2021/05/21 04:07:18;;;;;;;3.23;1.10;;;;;;;13.00;58.77;99886.84;5073225;28;20217;-65
2021/05/21 04:09:44;;;;;;;1.43;1.20;;;;;;;13.01;58.78;99889.41;5070816;28;20201;-67
2021/05/21 04:12:11;;;;;;;1.73;1.20;;;;;;;13.03;58.61;99882.09;5069710;28;20205;-66
2021/05/21 04:14:37;;;;;;;4.87;1.40;;;;;;;13.05;58.63;99896.19;5070589;28;20209;-66
2021/05/21 04:17:03;;;;;;;1.47;1.17;;;;;;;13.06;58.91;99891.69;5060521;28;20221;-66
2021/05/21 04:19:29;;;;;;;3.73;1.07;;;;;;;13.08;59.09;99887.03;5068229;28;20697;-66
2021/05/21 04:21:55;;;;;;;2.90;1.20;;;;;;;13.09;58.76;99883.38;5062785;28;20222;-67
2021/05/21 04:24:21;;;;;;;2.00;1.10;;;;;;;13.11;58.52;99868.91;5065428;28;20210;-65
2021/05/21 04:26:47;;;;;;;1.20;1.10;;;;;;;13.14;58.67;99867.78;5062771;28;20741;-65
2021/05/21 04:29:14;;;;;;;2.10;1.10;;;;;;;13.15;58.53;99862.34;5067011;28;20208;-66
2021/05/21 04:31:40;;;;;;;2.77;1.07;;;;;;;13.18;58.64;99867.44;5066891;28;20250;-66
2021/05/21 04:34:06;;;;;;;1.20;1.10;;;;;;;13.19;58.89;99861.09;5065953;28;20211;-65
2021/05/21 04:36:32;;;;;;;1.30;1.20;;;;;;;13.20;58.61;99861.97;5064427;28;20731;-65
2021/05/21 04:38:58;;;;;;;2.27;1.30;;;;;;;13.23;58.54;99855.50;5067698;28;20311;-65
2021/05/21 04:41:24;;;;;;;2.90;1.27;;;;;;;13.23;58.66;99855.50;5067405;28;20224;-64
2021/05/21 04:43:51;;;;;;;1.53;1.30;;;;;;;13.24;58.60;99858.03;5066370;28;20701;-66
2021/05/21 04:46:18;;;;;;;1.67;1.10;;;;;;;13.25;58.67;99851.72;5067226;28;20238;-66
2021/05/21 04:48:45;;;;;;;1.77;1.10;;;;;;;13.26;58.84;99849.84;5066017;28;20211;-66
2021/05/21 04:51:11;;;;;;;1.67;1.00;;;;;;;13.27;58.69;99852.41;5056479;28;20204;-65
2021/05/21 04:53:40;;;;;;;1.77;1.00;;;;;;;13.29;58.87;99847.78;5057256;28;20675;-65
2021/05/21 04:56:07;;;;;;;1.50;1.40;;;;;;;13.31;58.61;99840.47;5055008;28;20233;-66
2021/05/21 04:58:33;;;;;;;1.33;1.17;;;;;;;13.32;58.63;99839.50;5058577;28;20893;-65
2021/05/21 05:00:59;;;;;;;0.77;0.77;;;;;;;13.35;58.74;99841.06;5062700;28;20763;-62
2021/05/21 05:03:26;;;;;;;1.17;1.07;;;;;;;13.39;58.56;99839.81;5066662;28;20215;-65
2021/05/21 05:05:52;;;;;;;1.50;1.23;;;;;;;13.40;58.72;99830.81;5057418;28;20232;-65
2021/05/21 05:08:18;;;;;;;2.00;1.03;;;;;;;13.41;58.56;99827.16;5055800;28;20215;-66
2021/05/21 05:10:45;;;;;;;2.10;1.10;;;;;;;13.43;58.75;99830.53;5056753;28;20501;-66
2021/05/21 05:13:11;;;;;;;0.90;0.90;;;;;;;13.44;58.35;99830.38;5064201;28;20201;-67
2021/05/21 05:15:37;;;;;;;1.80;1.10;;;;;;;13.45;58.56;99825.88;5062320;28;20286;-66
2021/05/21 05:18:05;;;;;;;1.10;1.00;;;;;;;13.46;58.29;99822.22;5049845;28;20241;-66
2021/05/21 05:20:32;;;;;;;2.90;1.30;;;;;;;13.47;58.57;99819.41;5051292;28;20233;-65
2021/05/21 05:22:58;;;;;;;2.23;0.97;;;;;;;13.50;58.27;99815.63;5054535;28;20625;-65
2021/05/21 05:25:24;;;;;;;1.67;1.10;;;;;;;13.52;58.44;99802.97;5070139;28;20201;-66
2021/05/21 05:27:51;;;;;;;2.13;1.10;;;;;;;13.57;58.16;99803.41;5053892;28;20274;-66
2021/05/21 05:30:18;;;;;;;1.37;0.83;;;;;;;13.64;58.30;99796.50;5051360;28;20193;-66
2021/05/21 05:32:44;;;;;;;1.47;0.90;;;;;;;13.73;58.48;99800.19;5052223;28;20255;-67
2021/05/21 05:35:11;;;;;;;2.60;0.90;;;;;;;13.79;58.41;99791.63;5055573;28;20733;-69
2021/05/21 05:37:37;;;;;;;1.47;0.90;;;;;;;13.84;58.38;99798.25;5065330;28;20608;-67
2021/05/21 05:40:05;;;;;;;2.07;1.03;;;;;;;13.89;57.57;99781.78;5059291;28;20251;-65
2021/05/21 05:42:31;;;;;;;1.93;1.20;;;;;;;13.94;57.91;99787.56;5061759;28;20213;-67
2021/05/21 05:44:57;;;;;;;0.77;0.77;;;;;;;13.99;57.81;99784.44;5062255;28;20236;-68
2021/05/21 05:47:23;;;;;;;1.67;0.80;;;;;;;14.06;57.88;99786.44;5060852;28;20708;-69
2021/05/21 05:49:49;;;;;;;1.83;1.23;;;;;;;14.17;57.67;99785.44;5067572;28;20201;-66
2021/05/21 05:52:15;;;;;;;1.13;1.03;;;;;;;14.25;57.14;99778.41;5065824;28;20584;-66
2021/05/21 05:54:42;;;;;;;1.33;0.80;;;;;;;14.36;57.26;99774.72;5057077;28;20216;-67
2021/05/21 05:57:08;;;;;;;2.33;1.10;;;;;;;14.44;56.70;99774.03;5066177;28;20250;-67
2021/05/21 05:59:35;;;;;;;1.63;0.83;;;;;;;14.54;56.46;99773.03;5060482;28;20249;-68
2021/05/21 06:02:01;;;;;;;2.13;0.97;;;;;;;14.60;56.19;99768.94;5061890;28;20607;-68
2021/05/21 06:04:27;;;;;;;2.20;0.80;;;;;;;14.73;56.33;99763.25;5061192;28;20212;-66
2021/05/21 06:06:53;;;;;;;2.43;0.80;;;;;;;14.88;55.63;99777.88;5060208;28;20225;-66
2021/05/21 06:09:19;;;;;;;1.30;1.00;;;;;;;15.04;55.18;99766.56;5055685;28;20205;-68
2021/05/21 06:11:46;;;;;;;1.60;0.90;;;;;;;15.20;54.89;99777.50;5055412;28;20575;-68
2021/05/21 06:14:12;;;;;;;1.83;0.80;;;;;;;15.34;54.79;99768.97;5055369;28;20201;-67
2021/05/21 06:16:38;;;;;;;1.27;0.63;;;;;;;15.46;54.45;99764.25;5056911;28;20287;-67
2021/05/21 06:19:04;;;;;;;2.23;1.00;;;;;;;15.53;53.82;99762.66;5060303;28;20624;-65
2021/05/21 06:21:30;;;;;;;2.00;0.67;;;;;;;15.59;53.47;99764.75;5057209;28;20236;-65
2021/05/21 06:23:56;;;;;;;1.20;0.73;;;;;;;15.67;53.14;99762.16;5056426;28;20213;-68
2021/05/21 06:26:31;;;;;;;3.27;0.97;;;;;;;15.72;52.73;99751.84;5057811;28;20228;-66
2021/05/21 06:28:58;;;;;;;2.13;0.90;;;;;;;15.78;52.62;99751.19;5054665;28;20291;-67
2021/05/21 06:31:24;;;;;;;0.70;0.60;;;;;;;15.87;52.27;99741.41;5052565;28;20678;-67
2021/05/21 06:33:51;;;;;;;2.20;0.93;;;;;;;15.97;52.23;99748.38;5057800;28;20201;-70
2021/05/21 06:36:17;;;;;;;2.03;0.87;;;;;;;16.07;52.42;99734.03;5056096;28;20613;-67
2021/05/21 06:38:43;;;;;;;0.93;0.70;;;;;;;16.12;52.03;99745.16;5058763;28;20212;-68
2021/05/21 06:41:09;;;;;;;2.40;0.83;;;;;;;16.21;51.62;99741.53;5057616;28;20228;-69
2021/05/21 06:43:35;;;;;;;2.23;1.00;;;;;;;16.30;51.51;99736.06;5057327;28;20216;-67
2021/05/21 06:46:03;;;;;;;2.20;0.80;;;;;;;16.40;51.11;99736.00;5057683;28;20229;-67
2021/05/21 06:48:31;;;;;;;4.10;0.80;;;;;;;16.47;50.49;99736.22;5056399;28;20206;-68
2021/05/21 06:50:57;;;;;;;1.27;0.60;;;;;;;16.50;50.16;99727.81;5053162;28;20220;-67
2021/05/21 06:53:24;;;;;;;0.93;0.60;;;;;;;16.56;49.92;99728.03;5055809;28;20201;-69
2021/05/21 06:55:50;;;;;;;1.53;0.70;;;;;;;16.67;49.68;99717.03;5061149;28;20618;-69
2021/05/21 06:58:18;;;;;;;2.13;0.90;;;;;;;16.86;50.21;99715.13;5057960;28;20208;-68
2021/05/21 07:00:44;;;;;;;1.53;0.70;;;;;;;17.02;48.95;99701.75;5057484;28;20221;-67
2021/05/21 07:03:11;;;;;;;3.93;0.90;;;;;;;17.08;47.99;99714.56;5053212;28;20206;-66
2021/05/21 07:05:38;;;;;;;1.57;0.70;;;;;;;17.19;47.78;99703.53;5055439;28;20216;-69
2021/05/21 07:08:05;;;;;;;1.33;0.70;;;;;;;17.31;47.28;99704.94;5056537;28;20217;-72
2021/05/21 07:10:31;;;;;;;1.00;0.70;;;;;;;17.36;46.62;99701.75;5052731;28;20596;-67
2021/05/21 07:13:06;;;;;;;2.33;0.80;;;;;;;17.33;46.50;99707.47;5054275;28;20206;-69
2021/05/21 07:15:32;;;;;;;0.90;0.70;;;;;;;17.37;46.81;99702.59;5054026;28;20210;-66
2021/05/21 07:17:58;;;;;;;2.60;0.80;;;;;;;17.43;46.41;99696.53;5052840;28;20252;-67
2021/05/21 07:20:25;;;;;;;1.50;0.53;;;;;;;17.46;46.45;99706.97;5056243;28;20703;-67
2021/05/21 07:22:51;;;;;;;1.43;0.67;;;;;;;17.57;46.53;99698.59;5054780;28;20210;-65
2021/05/21 07:25:17;;;;;;;1.83;0.83;;;;;;;17.69;45.83;99689.25;5054421;28;20745;-67
2021/05/21 07:27:43;;;;;;;0.63;0.60;;;;;;;17.82;45.93;99680.66;5059866;28;20587;-67
2021/05/21 07:30:10;;;;;;;2.93;1.00;;;;;;;17.96;46.24;99678.13;5060428;28;20210;-67
2021/05/21 07:32:36;;;;;;;2.83;0.67;;;;;;;18.15;45.86;99685.03;5055388;28;20203;-69
2021/05/21 07:35:03;;;;;;;1.57;0.80;;;;;;;18.32;45.55;99683.19;5053438;28;20520;-67
2021/05/21 07:37:29;;;;;;;1.97;0.80;;;;;;;18.45;44.43;99675.41;5053603;28;20618;-70
2021/05/21 07:39:55;;;;;;;1.20;0.80;;;;;;;18.55;44.25;99678.78;5054565;28;20204;-68
2021/05/21 07:42:22;;;;;;;2.23;0.73;;;;;;;18.65;43.37;99674.03;5051093;28;20224;-65
2021/05/21 07:44:48;;;;;;;1.53;0.60;;;;;;;18.70;43.65;99677.06;5056763;28;20703;-67
2021/05/21 07:47:14;;;;;;;1.67;0.67;;;;;;;18.81;43.91;99683.94;5061460;22;20230;-66
2021/05/21 07:49:40;;;;;;;2.10;0.70;;;;;;;18.96;43.37;99663.34;5032632;28;20215;-67
2021/05/21 07:52:07;;;;;;;2.50;0.70;;;;;;;19.02;42.54;99669.88;5034428;28;20272;-65
2021/05/21 07:54:34;;;;;;;1.93;0.90;;;;;;;18.99;42.25;99672.91;5030943;28;20218;-65
2021/05/21 07:57:00;;;;;;;2.90;0.70;;;;;;;18.92;42.25;99671.94;5034462;28;20239;-65
2021/05/21 07:59:26;;;;;;;1.23;0.60;;;;;;;18.86;42.04;99668.09;5038907;28;20708;-65
2021/05/21 08:01:52;;;;;;;1.17;0.80;;;;;;;18.76;41.87;99669.31;5039198;28;20222;-67
2021/05/21 08:04:18;;;;;;;2.87;0.70;;;;;;;18.72;42.97;99661.56;5038232;28;20650;-66
2021/05/21 08:06:44;;;;;;;3.20;0.90;;;;;;;18.79;43.28;99663.56;5038310;28;20238;-66
2021/05/21 08:09:10;;;;;;;1.70;0.80;;;;;;;18.90;43.03;99658.63;5037891;28;20207;-66
2021/05/21 08:11:37;;;;;;;3.77;0.77;;;;;;;18.99;42.78;99659.44;5038990;28;20290;-66
2021/05/21 08:14:04;;;;;;;1.80;0.87;;;;;;;19.06;42.95;99649.63;5039069;28;20691;-66
2021/05/21 08:16:30;;;;;;;1.93;0.87;;;;;;;19.21;42.95;99657.81;5031575;28;20255;-66
2021/05/21 08:18:57;;;;;;;1.73;0.70;;;;;;;19.35;42.37;99636.28;5034024;28;20208;-66
2021/05/21 08:21:25;;;;;;;2.40;0.93;;;;;;;19.54;42.42;99634.19;5032081;28;20228;-64
2021/05/21 08:23:51;;;;;;;2.83;0.80;;;;;;;19.62;41.33;99623.34;5031024;28;20209;-66
2021/05/21 08:26:17;;;;;;;2.33;0.80;;;;;;;19.63;41.13;99628.56;5034923;28;20736;-66
2021/05/21 08:28:44;;;;;;;2.23;0.90;;;;;;;19.61;41.08;99635.16;5032358;28;20208;-66
2021/05/21 08:31:11;;;;;;;2.77;1.00;;;;;;;19.55;41.25;99630.47;5030493;28;20206;-66
2021/05/21 08:33:43;;;;;;;3.73;1.03;;;;;;;19.50;40.89;99628.31;5031941;28;20233;-66
2021/05/21 08:36:09;;;;;;;1.40;0.80;;;;;;;19.56;41.01;99629.44;5033272;28;20298;-66
2021/05/21 08:38:37;;;;;;;1.57;0.80;;;;;;;19.59;40.80;99612.88;5032009;28;20295;-66
2021/05/21 08:41:04;;;;;;;3.80;0.80;;;;;;;19.57;40.87;99626.56;5030609;28;20258;-66
2021/05/21 08:43:31;;;;;;;2.50;1.00;;;;;;;19.56;40.28;99622.19;5034890;28;20318;-66
2021/05/21 08:45:59;;;;;;;3.03;1.00;;;;;;;19.58;40.76;99619.31;5031872;28;20209;-65
2021/05/21 08:48:25;;;;;;;5.10;0.90;;;;;;;19.58;40.23;99611.22;5032956;28;20696;-65
2021/05/21 08:50:51;;;;;;;3.03;1.03;;;;;;;19.63;40.33;99615.06;5032939;28;20196;-66
2021/05/21 08:53:17;;;;;;;3.27;0.80;;;;;;;19.64;39.69;99619.44;5031190;28;20209;-65
2021/05/21 08:55:43;;;;;;;5.43;1.10;;;;;;;19.62;39.08;99613.38;5030353;28;20223;-65
2021/05/21 08:58:11;;;;;;;2.53;0.83;;;;;;;19.57;39.61;99621.16;5030151;28;20220;-66
2021/05/21 09:00:38;;;;;;;1.73;0.80;;;;;;;19.55;39.60;99625.91;5032620;28;20233;-67
2021/05/21 09:03:19;;;;;;;2.97;1.00;;;;;;;19.52;39.38;99606.53;5031493;28;20214;-67
2021/05/21 09:06:13;;;;;;;6.37;1.10;;;;;;;19.46;39.30;99612.63;5030484;28;20602;-66
2021/05/21 09:08:43;;;;;;;2.70;1.20;;;;;;;19.37;39.83;99601.88;5033802;28;20219;-67
2021/05/21 09:11:30;;;;;;;3.87;1.07;;;;;;;19.35;39.75;99603.91;5031735;28;20288;-67
2021/05/21 09:14:04;;;;;;;3.77;0.70;;;;;;;19.31;39.57;99607.16;5035238;28;20203;-67
2021/05/21 09:16:32;;;;;;;1.47;0.80;;;;;;;19.30;40.16;99598.22;5035371;28;20223;-67
2021/05/21 09:19:04;;;;;;;3.57;0.87;;;;;;;19.35;39.93;99600.34;5036403;28;20212;-67
2021/05/21 09:22:03;;;;;;;1.63;0.60;;;;;;;19.41;40.16;99592.41;5037000;28;20226;-66
2021/05/21 09:24:33;;;;;;;1.73;0.73;;;;;;;19.43;39.28;99590.34;4983440;28;20584;-67
2021/05/21 09:27:00;;;;;;;3.17;0.70;;;;;;;19.50;39.51;99586.97;5027281;28;20218;-67
2021/05/21 09:29:43;;;;;;;1.63;0.57;;;;;;;19.55;39.29;99592.66;5045126;28;20292;-69
2021/05/21 09:32:24;;;;;;;2.70;0.50;;;;;;;19.69;39.08;99581.09;5036543;28;20237;-66
2021/05/21 09:35:07;;;;;;;0.87;0.57;;;;;;;19.84;39.59;99575.72;5039982;28;20199;-67
2021/05/21 09:37:35;;;;;;;0.63;0.60;;;;;;;19.99;39.81;99572.03;5039951;28;20228;-67
2021/05/21 09:40:08;;;;;;;1.80;0.63;;;;;;;20.11;39.18;99570.53;5042297;28;20205;-67
2021/05/21 09:42:45;;;;;;;2.13;0.60;;;;;;;20.19;38.76;99569.63;5041186;28;20327;-68
2021/05/21 09:45:21;;;;;;;2.97;0.60;;;;;;;20.23;38.03;99560.13;5042747;28;20380;-66
2021/05/21 09:47:49;;;;;;;2.33;0.70;;;;;;;20.24;38.68;99564.53;5043527;28;20242;-68
2021/05/21 09:50:16;;;;;;;2.00;0.60;;;;;;;20.33;38.63;99562.53;5041165;28;20202;-66
2021/05/21 09:52:47;;;;;;;2.53;0.80;;;;;;;20.45;39.14;99571.91;5042239;28;20222;-68
2021/05/21 09:55:13;;;;;;;2.00;0.60;;;;;;;20.62;39.08;99572.53;5038334;28;20205;-68
2021/05/21 09:57:40;;;;;;;3.27;0.60;;;;;;;20.71;37.89;99566.84;5035225;28;20233;-66
2021/05/21 10:00:09;;;;;;;2.60;0.70;;;;;;;20.68;37.22;99559.13;5036854;28;20240;-68
2021/05/21 10:02:35;;;;;;;1.17;0.60;;;;;;;20.66;36.49;99550.34;5038274;28;20265;-67
2021/05/21 10:05:05;;;;;;;2.83;0.80;;;;;;;20.59;36.45;99552.13;5039860;28;20208;-66
2021/05/21 10:07:32;;;;;;;1.83;0.80;;;;;;;20.55;36.68;99555.41;5034882;28;20652;-67
2021/05/21 10:09:58;;;;;;;1.17;0.50;;;;;;;20.52;37.08;99551.19;5033649;28;20216;-67
2021/05/21 10:12:25;;;;;;;1.17;0.70;;;;;;;20.48;36.94;99555.31;5037530;28;20210;-66
2021/05/21 10:14:51;;;;;;;1.57;0.60;;;;;;;20.45;37.01;99561.06;5036244;28;20296;-67
2021/05/21 10:17:19;;;;;;;1.83;0.80;;;;;;;20.39;36.78;99565.38;5037486;28;20742;-67
2021/05/21 10:19:46;;;;;;;1.87;0.63;;;;;;;20.35;37.04;99566.75;5035716;28;20202;-68
2021/05/21 10:22:16;;;;;;;2.57;0.70;;;;;;;20.37;37.44;99575.56;5033487;28;20275;-67
2021/05/21 10:24:45;;;;;;;1.73;0.53;;;;;;;20.39;37.36;99570.81;5034351;28;20708;-67
2021/05/21 10:27:18;;;;;;;2.00;0.60;;;;;;;20.34;37.15;99566.94;5034558;28;20734;-71
2021/05/21 10:29:50;;;;;;;1.83;0.70;;;;;;;20.22;37.13;99566.56;5036266;28;20210;-67
2021/05/21 10:32:17;;;;;;;1.57;0.60;;;;;;;20.11;37.19;99569.69;5033644;28;20790;-67
2021/05/21 10:34:48;;;;;;;1.80;0.60;;;;;;;20.03;37.56;99567.94;5041232;28;20207;-66
2021/05/21 10:37:27;;;;;;;3.27;0.80;;;;;;;19.95;37.72;99567.16;5034498;28;20233;-67
2021/05/21 10:40:06;;;;;;;1.47;0.70;;;;;;;19.94;38.31;99568.19;5033908;28;20295;-65
2021/05/21 10:42:44;;;;;;;0.90;0.50;;;;;;;19.98;38.20;99559.53;5033242;28;20224;-66
2021/05/21 10:45:16;;;;;;;3.47;0.87;;;;;;;19.98;38.18;99570.34;5035374;28;20205;-67
2021/05/21 10:47:45;;;;;;;0.97;0.60;;;;;;;19.94;37.78;99555.50;5037470;28;20237;-67
2021/05/21 10:50:20;;;;;;;3.37;0.77;;;;;;;19.91;37.56;99566.69;5036919;28;20204;-68
2021/05/21 10:52:52;;;;;;;1.30;0.73;;;;;;;19.90;37.66;99566.88;5034146;28;20290;-69
2021/05/21 10:55:20;;;;;;;2.13;0.90;;;;;;;19.91;37.65;99561.28;5037298;28;20772;-67
2021/05/21 10:57:59;;;;;;;2.10;0.53;;;;;;;19.97;37.95;99562.41;5034077;28;20220;-67
2021/05/21 11:00:25;;;;;;;1.60;0.60;;;;;;;19.95;37.28;99559.91;5034148;28;20288;-67
2021/05/21 11:02:55;;;;;;;3.07;1.00;;;;;;;19.92;36.55;99565.66;5033725;28;20213;-67
2021/05/21 11:05:27;;;;;;;2.17;0.90;;;;;;;19.84;36.33;99552.25;5033869;28;20255;-68
2021/05/21 11:07:55;;;;;;;1.93;0.70;;;;;;;19.79;36.23;99560.06;5030905;28;20231;-66
2021/05/21 11:10:50;;;;;;;1.90;0.60;;;;;;;19.72;36.06;99559.94;5035279;28;20217;-67
2021/05/21 11:13:18;;;;;;;2.07;0.60;;;;;;;19.72;36.46;99562.63;4989535;28;20627;-67
2021/05/21 11:15:47;;;;;;;2.50;0.60;;;;;;;19.77;36.51;99575.59;5033469;28;21141;-67
2021/05/21 11:18:27;;;;;;;2.17;0.70;;;;;;;19.75;36.44;99550.63;5031968;28;20225;-66
2021/05/21 11:20:55;;;;;;;2.40;0.80;;;;;;;19.74;37.17;99562.44;5042993;28;20254;-67
2021/05/21 11:23:24;;;;;;;1.63;0.97;;;;;;;19.77;36.90;99559.38;5050146;28;20199;-67
2021/05/21 11:26:04;;;;;;;3.67;0.90;;;;;;;19.77;37.13;99556.69;5044180;28;20274;-68
2021/05/21 11:28:33;;;;;;;2.40;0.83;;;;;;;19.79;37.11;99559.22;5044976;28;20211;-68
2021/05/21 11:31:00;;;;;;;1.83;0.80;;;;;;;19.88;36.90;99552.72;5045226;28;20204;-67
2021/05/21 11:33:26;;;;;;;2.00;0.70;;;;;;;19.94;36.48;99554.66;5048907;28;20626;-67